Tower Bridge — A8ER5 — position and weather

sailwx.info

Track history (hours):
 
Tides and Currents Weather Stations Pressure Air Temp Water Temp Dewpoint Dewpoint Depression Visibility Wind Speed Wind Dir Waves Ship Positions

Tower Bridge

Last reported at 2017-Nov-17 21:36 UTC. Time now 2017-Nov-18 08:48 UTC.
Position N 40°33' W 074°14'.

Length 183 m; draft 8.3 m.

Type: Tanker. MMSI: 636012318.

Date/timePositionNaut miles runAvg speedWind from/ knotsBaromVisibWave heightAir tempDewpointWater temp
2017-Nov-17 21:36N 40°33' W 074°14'0 1.2
2017-Nov-17 21:30N 40°33' W 074°15'2 3.3
2017-Nov-17 20:58N 40°32' W 074°15'2 3.1
2017-Nov-17 20:17N 40°30' W 074°13'2 7.9
2017-Nov-17 20:00N 40°30' W 074°10'511.2
2017-Nov-17 19:31N 40°29' W 074°03'4 8.6
2017-Nov-17 19:00N 40°28' W 073°57'4 8.2
2017-Nov-17 18:30N 40°26' W 073°52'4 9.0
2017-Nov-17 18:00N 40°26' W 073°47'3 5.6
2017-Nov-17 17:30N 40°24' W 073°47'4210.3
2017-Nov-17 13:27N 39°42' W 073°44'612.5
2017-Nov-17 13:00N 39°37' W 073°48'7610.4
2017-Nov-17 05:41N 38°50' W 075°04'510.2
2017-Nov-17 05:09N 38°55' W 075°06'213.8
2017-Nov-17 05:00N 38°57' W 075°07'713.8
2017-Nov-17 04:31N 39°03' W 075°10'713.8
2017-Nov-17 04:00N 39°09' W 075°15'713.2
2017-Nov-17 03:30N 39°15' W 075°19'612.8
2017-Nov-17 03:01N 39°19' W 075°24'612.1
2017-Nov-17 02:30N 39°24' W 075°30'611.1
2017-Nov-17 02:00N 39°28' W 075°34'510.5
2017-Nov-17 01:30N 39°34' W 075°33'5 9.4
2017-Nov-17 01:00N 39°38' W 075°34'510.5
2017-Nov-17 00:30N 39°43' W 075°31'510.5
2017-Nov-17 00:00N 39°47' W 075°27'2 3.4
2017-Nov-16 23:28N 39°48' W 075°25'0 0.0
2017-Nov-16 22:58N 39°48' W 075°25'0 0.0
2017-Nov-16 22:28N 39°48' W 075°25'0 0.1
2017-Nov-16 22:01N 39°48' W 075°25'0 0.7
2017-Nov-16 21:29N 39°48' W 075°25'0 0.0
2017-Nov-16 20:59N 39°48' W 075°25'0 0.0
2017-Nov-16 20:29N 39°48' W 075°25'0 0.0
2017-Nov-16 19:59N 39°48' W 075°25'0 0.0
2017-Nov-16 19:29N 39°48' W 075°25'0 0.0
2017-Nov-16 18:59N 39°48' W 075°25'0 0.0
2017-Nov-16 18:29N 39°48' W 075°25'0 0.0
2017-Nov-16 17:59N 39°48' W 075°25'0 0.0
2017-Nov-16 17:29N 39°48' W 075°25'0 0.0
2017-Nov-16 16:59N 39°48' W 075°25'0 0.0
2017-Nov-16 16:29N 39°48' W 075°25'0 0.0
2017-Nov-16 15:56N 39°48' W 075°25'0 0.0
2017-Nov-16 15:29N 39°48' W 075°25'0 0.0
2017-Nov-16 14:56N 39°48' W 075°25'0 0.0
2017-Nov-16 14:29N 39°48' W 075°25'0 0.0
2017-Nov-16 13:59N 39°48' W 075°25'0 0.0
2017-Nov-16 13:29N 39°48' W 075°25'0 0.0
2017-Nov-16 12:56N 39°48' W 075°25'0 0.0
2017-Nov-16 12:29N 39°48' W 075°25'0 0.0
2017-Nov-16 11:59N 39°48' W 075°25'0 0.0
2017-Nov-16 11:26N 39°48' W 075°25'0 0.0
2017-Nov-16 10:59N 39°48' W 075°25'0 0.0
2017-Nov-16 10:29N 39°48' W 075°25'0 0.0
2017-Nov-16 09:59N 39°48' W 075°25'0 0.0
2017-Nov-16 09:29N 39°48' W 075°25'0 0.0
2017-Nov-16 08:59N 39°48' W 075°25'0 0.0
2017-Nov-16 08:29N 39°48' W 075°25'0 0.0
2017-Nov-16 07:59N 39°48' W 075°25'0 0.0
2017-Nov-16 07:29N 39°48' W 075°25'0 0.0
2017-Nov-16 06:59N 39°48' W 075°25'0 0.0
2017-Nov-16 06:29N 39°48' W 075°25'0 0.0
2017-Nov-16 05:59N 39°48' W 075°25'0 0.0
2017-Nov-16 05:29N 39°48' W 075°25'0 0.0
2017-Nov-16 04:59N 39°48' W 075°25'0 0.0
2017-Nov-16 04:29N 39°48' W 075°25'0 0.0
2017-Nov-16 03:59N 39°48' W 075°25'0 0.0
2017-Nov-16 03:29N 39°48' W 075°25'0 0.0
2017-Nov-16 02:59N 39°48' W 075°25'0 0.0
2017-Nov-16 02:29N 39°48' W 075°25'0 0.0
2017-Nov-16 01:59N 39°48' W 075°25'0 0.0
2017-Nov-16 01:23N 39°48' W 075°25'0 0.0
2017-Nov-16 00:59N 39°48' W 075°25'0 0.0
2017-Nov-16 00:29N 39°48' W 075°25'0 0.0
2017-Nov-15 23:59N 39°48' W 075°25'0 0.0
2017-Nov-15 23:29N 39°48' W 075°25'0 0.0
2017-Nov-15 22:59N 39°48' W 075°25'0 0.0
2017-Nov-15 22:29N 39°48' W 075°25'0 0.0
2017-Nov-15 21:59N 39°48' W 075°25'0 0.0
2017-Nov-15 21:29N 39°48' W 075°25'0 0.0
2017-Nov-15 20:59N 39°48' W 075°25'0 0.0
2017-Nov-15 20:29N 39°48' W 075°25'0 0.0
2017-Nov-15 19:59N 39°48' W 075°25'0 0.0
2017-Nov-15 19:29N 39°48' W 075°25'0 0.0
2017-Nov-15 18:59N 39°48' W 075°25'0 0.0
2017-Nov-15 18:29N 39°48' W 075°25'0 0.0
2017-Nov-15 17:59N 39°48' W 075°25'0 0.0
2017-Nov-15 17:26N 39°48' W 075°25'0 0.0
2017-Nov-15 16:59N 39°48' W 075°25'0 0.0
2017-Nov-15 16:29N 39°48' W 075°25'0 0.0
2017-Nov-15 15:59N 39°48' W 075°25'0 0.0
2017-Nov-15 15:29N 39°48' W 075°25'0 0.0
2017-Nov-15 14:59N 39°48' W 075°25'0 0.0
2017-Nov-15 14:29N 39°48' W 075°25'0 0.0
2017-Nov-15 13:59N 39°48' W 075°25'0 0.0
2017-Nov-15 13:29N 39°48' W 075°25'0 0.0
2017-Nov-15 12:59N 39°48' W 075°25'0 0.0
2017-Nov-15 12:29N 39°48' W 075°25'0 0.0
2017-Nov-15 11:59N 39°48' W 075°25'0 0.0
2017-Nov-15 11:29N 39°48' W 075°25'0 0.0
2017-Nov-15 10:59N 39°48' W 075°25'0 0.0
2017-Nov-15 10:29N 39°48' W 075°25'0 0.0
2017-Nov-15 09:59N 39°48' W 075°25'0 0.0
2017-Nov-15 09:29N 39°48' W 075°25'0 0.0
2017-Nov-15 08:59N 39°48' W 075°25'0 0.0
2017-Nov-15 08:29N 39°48' W 075°25'0 0.0
2017-Nov-15 07:59N 39°48' W 075°25'0 0.0
2017-Nov-15 07:29N 39°48' W 075°25'0 0.0
2017-Nov-15 06:59N 39°48' W 075°25'0 0.0
2017-Nov-15 06:29N 39°48' W 075°25'0 0.0
2017-Nov-15 05:59N 39°48' W 075°25'0 0.0
2017-Nov-15 05:29N 39°48' W 075°25'0 0.0
2017-Nov-15 04:59N 39°48' W 075°25'0 0.0
2017-Nov-15 04:29N 39°48' W 075°25'0 0.0
2017-Nov-15 03:59N 39°48' W 075°25'0 0.0
2017-Nov-15 03:29N 39°48' W 075°25'0 0.0
2017-Nov-15 02:59N 39°48' W 075°25'0 0.0
2017-Nov-15 02:29N 39°48' W 075°25'0 0.0
2017-Nov-15 01:59N 39°48' W 075°25'0 0.0
2017-Nov-15 01:29N 39°48' W 075°25'0 0.0
2017-Nov-15 00:59N 39°48' W 075°25'0 0.0
2017-Nov-15 00:29N 39°48' W 075°25'0 0.0
2017-Nov-14 23:59N 39°48' W 075°25'0 0.0
2017-Nov-14 23:29N 39°48' W 075°25'0 0.0
2017-Nov-14 22:59N 39°48' W 075°25'0 0.0
2017-Nov-14 22:29N 39°48' W 075°25'0 0.0
2017-Nov-14 21:59N 39°48' W 075°25'0 0.0
2017-Nov-14 21:29N 39°48' W 075°25'0 0.0
2017-Nov-14 20:59N 39°48' W 075°25'0 0.0
2017-Nov-14 20:29N 39°48' W 075°25'0 0.0
2017-Nov-14 19:59N 39°48' W 075°25'0 0.0
2017-Nov-14 19:29N 39°48' W 075°25'0 0.0
2017-Nov-14 18:59N 39°48' W 075°25'0 0.0
2017-Nov-14 18:29N 39°48' W 075°25'0 0.0
2017-Nov-14 17:59N 39°48' W 075°25'0 0.0
2017-Nov-14 17:29N 39°48' W 075°25'0 0.0
2017-Nov-14 16:59N 39°48' W 075°25'0 0.0
2017-Nov-14 16:29N 39°48' W 075°25'0 0.0
2017-Nov-14 15:59N 39°48' W 075°25'0 0.0
2017-Nov-14 15:29N 39°48' W 075°25'0 0.0
2017-Nov-14 14:59N 39°48' W 075°25'0 0.0
2017-Nov-14 14:29N 39°48' W 075°25'0 0.0
2017-Nov-14 13:59N 39°48' W 075°25'0 0.0
2017-Nov-14 13:29N 39°48' W 075°25'0 0.0
2017-Nov-14 12:59N 39°48' W 075°25'0 0.0
2017-Nov-14 12:29N 39°48' W 075°25'0 0.0
2017-Nov-14 11:59N 39°48' W 075°25'0 0.0
2017-Nov-14 11:29N 39°48' W 075°25'0 0.0
2017-Nov-14 10:59N 39°48' W 075°25'0 0.0
2017-Nov-14 10:29N 39°48' W 075°25'0 0.0
2017-Nov-14 10:01N 39°48' W 075°25'1 2.6
2017-Nov-14 09:31N 39°48' W 075°26'5 9.0
2017-Nov-14 09:01N 39°44' W 075°30'5 9.9
2017-Nov-14 08:30N 39°39' W 075°33'4 8.8
2017-Nov-14 08:00N 39°35' W 075°33'5 9.7
2017-Nov-14 07:31N 39°30' W 075°33'5 9.3
2017-Nov-14 07:00N 39°26' W 075°32'5 9.8
2017-Nov-14 06:30N 39°22' W 075°27'510.1
2017-Nov-14 06:00N 39°18' W 075°23'510.2
2017-Nov-14 05:30N 39°14' W 075°19'510.1
2017-Nov-14 05:00N 39°10' W 075°16'510.5
2017-Nov-14 04:30N 39°06' W 075°12'510.5
2017-Nov-14 04:00N 39°01' W 075°09'510.6
2017-Nov-14 03:31N 38°56' W 075°06'510.7
2017-Nov-14 03:00N 38°51' W 075°04'5 7.7
2017-Nov-14 02:21N 38°47' W 075°01'  
Track history (hours):
 
Tides and Currents Weather Stations Pressure Air Temp Water Temp Dewpoint Dewpoint Depression Visibility Wind Speed Wind Dir Waves Ship Positions

Tower Bridge

Last reported at 2017-Nov-17 21:36 UTC. Time now 2017-Nov-18 08:48 UTC.
Position N 40°33' W 074°14'.

Length 183 m; draft 8.3 m.

Type: Tanker. MMSI: 636012318.

Date/timePositionNaut miles runAvg speedWind from/ knotsBaromVisibWave heightAir tempDewpointWater temp
2017-Nov-17 21:36N 40°33' W 074°14'0 1.2
2017-Nov-17 21:30N 40°33' W 074°15'2 3.3
2017-Nov-17 20:58N 40°32' W 074°15'2 3.1
2017-Nov-17 20:17N 40°30' W 074°13'2 7.9
2017-Nov-17 20:00N 40°30' W 074°10'511.2
2017-Nov-17 19:31N 40°29' W 074°03'4 8.6
2017-Nov-17 19:00N 40°28' W 073°57'4 8.2
2017-Nov-17 18:30N 40°26' W 073°52'4 9.0
2017-Nov-17 18:00N 40°26' W 073°47'3 5.6
2017-Nov-17 17:30N 40°24' W 073°47'4210.3
2017-Nov-17 13:27N 39°42' W 073°44'612.5
2017-Nov-17 13:00N 39°37' W 073°48'7610.4
2017-Nov-17 05:41N 38°50' W 075°04'510.2
2017-Nov-17 05:09N 38°55' W 075°06'213.8
2017-Nov-17 05:00N 38°57' W 075°07'713.8
2017-Nov-17 04:31N 39°03' W 075°10'713.8
2017-Nov-17 04:00N 39°09' W 075°15'713.2
2017-Nov-17 03:30N 39°15' W 075°19'612.8
2017-Nov-17 03:01N 39°19' W 075°24'612.1
2017-Nov-17 02:30N 39°24' W 075°30'611.1
2017-Nov-17 02:00N 39°28' W 075°34'510.5
2017-Nov-17 01:30N 39°34' W 075°33'5 9.4
2017-Nov-17 01:00N 39°38' W 075°34'510.5
2017-Nov-17 00:30N 39°43' W 075°31'510.5
2017-Nov-17 00:00N 39°47' W 075°27'2 3.4
2017-Nov-16 23:28N 39°48' W 075°25'0 0.0
2017-Nov-16 22:58N 39°48' W 075°25'0 0.0
2017-Nov-16 22:28N 39°48' W 075°25'0 0.1
2017-Nov-16 22:01N 39°48' W 075°25'0 0.7
2017-Nov-16 21:29N 39°48' W 075°25'0 0.0
2017-Nov-16 20:59N 39°48' W 075°25'0 0.0
2017-Nov-16 20:29N 39°48' W 075°25'0 0.0
2017-Nov-16 19:59N 39°48' W 075°25'0 0.0
2017-Nov-16 19:29N 39°48' W 075°25'0 0.0
2017-Nov-16 18:59N 39°48' W 075°25'0 0.0
2017-Nov-16 18:29N 39°48' W 075°25'0 0.0
2017-Nov-16 17:59N 39°48' W 075°25'0 0.0
2017-Nov-16 17:29N 39°48' W 075°25'0 0.0
2017-Nov-16 16:59N 39°48' W 075°25'0 0.0
2017-Nov-16 16:29N 39°48' W 075°25'0 0.0
2017-Nov-16 15:56N 39°48' W 075°25'0 0.0
2017-Nov-16 15:29N 39°48' W 075°25'0 0.0
2017-Nov-16 14:56N 39°48' W 075°25'0 0.0
2017-Nov-16 14:29N 39°48' W 075°25'0 0.0
2017-Nov-16 13:59N 39°48' W 075°25'0 0.0
2017-Nov-16 13:29N 39°48' W 075°25'0 0.0
2017-Nov-16 12:56N 39°48' W 075°25'0 0.0
2017-Nov-16 12:29N 39°48' W 075°25'0 0.0
2017-Nov-16 11:59N 39°48' W 075°25'0 0.0
2017-Nov-16 11:26N 39°48' W 075°25'0 0.0
2017-Nov-16 10:59N 39°48' W 075°25'0 0.0
2017-Nov-16 10:29N 39°48' W 075°25'0 0.0
2017-Nov-16 09:59N 39°48' W 075°25'0 0.0
2017-Nov-16 09:29N 39°48' W 075°25'0 0.0
2017-Nov-16 08:59N 39°48' W 075°25'0 0.0
2017-Nov-16 08:29N 39°48' W 075°25'0 0.0
2017-Nov-16 07:59N 39°48' W 075°25'0 0.0
2017-Nov-16 07:29N 39°48' W 075°25'0 0.0
2017-Nov-16 06:59N 39°48' W 075°25'0 0.0
2017-Nov-16 06:29N 39°48' W 075°25'0 0.0
2017-Nov-16 05:59N 39°48' W 075°25'0 0.0
2017-Nov-16 05:29N 39°48' W 075°25'0 0.0
2017-Nov-16 04:59N 39°48' W 075°25'0 0.0
2017-Nov-16 04:29N 39°48' W 075°25'0 0.0
2017-Nov-16 03:59N 39°48' W 075°25'0 0.0
2017-Nov-16 03:29N 39°48' W 075°25'0 0.0
2017-Nov-16 02:59N 39°48' W 075°25'0 0.0
2017-Nov-16 02:29N 39°48' W 075°25'0 0.0
2017-Nov-16 01:59N 39°48' W 075°25'0 0.0
2017-Nov-16 01:23N 39°48' W 075°25'0 0.0
2017-Nov-16 00:59N 39°48' W 075°25'0 0.0
2017-Nov-16 00:29N 39°48' W 075°25'0 0.0
2017-Nov-15 23:59N 39°48' W 075°25'0 0.0
2017-Nov-15 23:29N 39°48' W 075°25'0 0.0
2017-Nov-15 22:59N 39°48' W 075°25'0 0.0
2017-Nov-15 22:29N 39°48' W 075°25'0 0.0
2017-Nov-15 21:59N 39°48' W 075°25'0 0.0
2017-Nov-15 21:29N 39°48' W 075°25'0 0.0
2017-Nov-15 20:59N 39°48' W 075°25'0 0.0
2017-Nov-15 20:29N 39°48' W 075°25'0 0.0
2017-Nov-15 19:59N 39°48' W 075°25'0 0.0
2017-Nov-15 19:29N 39°48' W 075°25'0 0.0
2017-Nov-15 18:59N 39°48' W 075°25'0 0.0
2017-Nov-15 18:29N 39°48' W 075°25'0 0.0
2017-Nov-15 17:59N 39°48' W 075°25'0 0.0
2017-Nov-15 17:26N 39°48' W 075°25'0 0.0
2017-Nov-15 16:59N 39°48' W 075°25'0 0.0
2017-Nov-15 16:29N 39°48' W 075°25'0 0.0
2017-Nov-15 15:59N 39°48' W 075°25'0 0.0
2017-Nov-15 15:29N 39°48' W 075°25'0 0.0
2017-Nov-15 14:59N 39°48' W 075°25'0 0.0
2017-Nov-15 14:29N 39°48' W 075°25'0 0.0
2017-Nov-15 13:59N 39°48' W 075°25'0 0.0
2017-Nov-15 13:29N 39°48' W 075°25'0 0.0
2017-Nov-15 12:59N 39°48' W 075°25'0 0.0
2017-Nov-15 12:29N 39°48' W 075°25'0 0.0
2017-Nov-15 11:59N 39°48' W 075°25'0 0.0
2017-Nov-15 11:29N 39°48' W 075°25'0 0.0
2017-Nov-15 10:59N 39°48' W 075°25'0 0.0
2017-Nov-15 10:29N 39°48' W 075°25'0 0.0
2017-Nov-15 09:59N 39°48' W 075°25'0 0.0
2017-Nov-15 09:29N 39°48' W 075°25'0 0.0
2017-Nov-15 08:59N 39°48' W 075°25'0 0.0
2017-Nov-15 08:29N 39°48' W 075°25'0 0.0
2017-Nov-15 07:59N 39°48' W 075°25'0 0.0
2017-Nov-15 07:29N 39°48' W 075°25'0 0.0
2017-Nov-15 06:59N 39°48' W 075°25'0 0.0
2017-Nov-15 06:29N 39°48' W 075°25'0 0.0
2017-Nov-15 05:59N 39°48' W 075°25'0 0.0
2017-Nov-15 05:29N 39°48' W 075°25'0 0.0
2017-Nov-15 04:59N 39°48' W 075°25'0 0.0
2017-Nov-15 04:29N 39°48' W 075°25'0 0.0
2017-Nov-15 03:59N 39°48' W 075°25'0 0.0
2017-Nov-15 03:29N 39°48' W 075°25'0 0.0
2017-Nov-15 02:59N 39°48' W 075°25'0 0.0
2017-Nov-15 02:29N 39°48' W 075°25'0 0.0
2017-Nov-15 01:59N 39°48' W 075°25'0 0.0
2017-Nov-15 01:29N 39°48' W 075°25'0 0.0
2017-Nov-15 00:59N 39°48' W 075°25'0 0.0
2017-Nov-15 00:29N 39°48' W 075°25'0 0.0
2017-Nov-14 23:59N 39°48' W 075°25'0 0.0
2017-Nov-14 23:29N 39°48' W 075°25'0 0.0
2017-Nov-14 22:59N 39°48' W 075°25'0 0.0
2017-Nov-14 22:29N 39°48' W 075°25'0 0.0
2017-Nov-14 21:59N 39°48' W 075°25'0 0.0
2017-Nov-14 21:29N 39°48' W 075°25'0 0.0
2017-Nov-14 20:59N 39°48' W 075°25'0 0.0
2017-Nov-14 20:29N 39°48' W 075°25'0 0.0
2017-Nov-14 19:59N 39°48' W 075°25'0 0.0
2017-Nov-14 19:29N 39°48' W 075°25'0 0.0
2017-Nov-14 18:59N 39°48' W 075°25'0 0.0
2017-Nov-14 18:29N 39°48' W 075°25'0 0.0
2017-Nov-14 17:59N 39°48' W 075°25'0 0.0
2017-Nov-14 17:29N 39°48' W 075°25'0 0.0
2017-Nov-14 16:59N 39°48' W 075°25'0 0.0
2017-Nov-14 16:29N 39°48' W 075°25'0 0.0
2017-Nov-14 15:59N 39°48' W 075°25'0 0.0
2017-Nov-14 15:29N 39°48' W 075°25'0 0.0
2017-Nov-14 14:59N 39°48' W 075°25'0 0.0
2017-Nov-14 14:29N 39°48' W 075°25'0 0.0
2017-Nov-14 13:59N 39°48' W 075°25'0 0.0
2017-Nov-14 13:29N 39°48' W 075°25'0 0.0
2017-Nov-14 12:59N 39°48' W 075°25'0 0.0
2017-Nov-14 12:29N 39°48' W 075°25'0 0.0
2017-Nov-14 11:59N 39°48' W 075°25'0 0.0
2017-Nov-14 11:29N 39°48' W 075°25'0 0.0
2017-Nov-14 10:59N 39°48' W 075°25'0 0.0
2017-Nov-14 10:29N 39°48' W 075°25'0 0.0
2017-Nov-14 10:01N 39°48' W 075°25'1 2.6
2017-Nov-14 09:31N 39°48' W 075°26'5 9.0
2017-Nov-14 09:01N 39°44' W 075°30'5 9.9
2017-Nov-14 08:30N 39°39' W 075°33'4 8.8
2017-Nov-14 08:00N 39°35' W 075°33'5 9.7
2017-Nov-14 07:31N 39°30' W 075°33'5 9.3
2017-Nov-14 07:00N 39°26' W 075°32'5 9.8
2017-Nov-14 06:30N 39°22' W 075°27'510.1
2017-Nov-14 06:00N 39°18' W 075°23'510.2
2017-Nov-14 05:30N 39°14' W 075°19'510.1
2017-Nov-14 05:00N 39°10' W 075°16'510.5
2017-Nov-14 04:30N 39°06' W 075°12'510.5
2017-Nov-14 04:00N 39°01' W 075°09'510.6
2017-Nov-14 03:31N 38°56' W 075°06'510.7
2017-Nov-14 03:00N 38°51' W 075°04'5 7.7
2017-Nov-14 02:21N 38°47' W 075°01'  

Dump ship's entire track history